createdAt,value
2024-02-19T00:03:28.862Z,2.53
2024-02-19T00:07:48.147Z,3.92
2024-02-19T00:12:06.068Z,3.95
2024-02-19T00:16:23.332Z,2.55
2024-02-19T00:20:40.729Z,1.50
2024-02-19T00:24:57.962Z,2.28
2024-02-19T00:29:15.184Z,1.80
2024-02-19T00:33:32.893Z,2.10
2024-02-19T00:37:50.704Z,1.60
2024-02-19T00:42:07.998Z,1.40
2024-02-19T00:46:25.229Z,2.67
2024-02-19T00:50:42.777Z,1.15
2024-02-19T00:55:00.526Z,1.20
2024-02-19T00:59:17.797Z,1.10
2024-02-19T01:03:35.217Z,1.10
2024-02-19T01:07:52.816Z,0.93
2024-02-19T01:12:10.012Z,2.03
2024-02-19T01:16:27.281Z,3.70
2024-02-19T01:20:44.648Z,2.38
2024-02-19T01:25:02.349Z,1.80
2024-02-19T01:29:19.883Z,1.43
2024-02-19T01:33:37.818Z,1.58
2024-02-19T01:37:55.196Z,1.40
2024-02-19T01:42:13.672Z,2.25
2024-02-19T01:46:32.306Z,1.90
2024-02-19T01:55:07.351Z,3.25
2024-02-19T01:59:26.585Z,1.83
2024-02-19T02:03:46.766Z,1.60
2024-02-19T02:08:06.455Z,2.00
2024-02-19T02:12:23.816Z,1.75
2024-02-19T02:16:40.943Z,1.95
2024-02-19T02:20:59.224Z,4.10
2024-02-19T02:25:16.706Z,1.05
2024-02-19T02:29:34.373Z,1.83
2024-02-19T02:33:51.832Z,0.90
2024-02-19T02:38:10.105Z,1.67
2024-02-19T02:42:27.517Z,2.13
2024-02-19T02:46:44.698Z,1.10
2024-02-19T02:51:01.902Z,1.23
2024-02-19T02:55:19.436Z,2.08
2024-02-19T02:59:36.634Z,1.92
2024-02-19T03:03:54.217Z,1.92
2024-02-19T03:08:11.727Z,1.35
2024-02-19T03:12:30.504Z,1.00
2024-02-19T03:16:47.807Z,0.68
2024-02-19T03:21:09.085Z,0.60
2024-02-19T03:25:26.565Z,1.70
2024-02-19T03:29:43.890Z,1.17
2024-02-19T03:34:01.281Z,1.38
2024-02-19T03:38:18.562Z,0.65
2024-02-19T03:42:36.425Z,1.02
2024-02-19T03:46:53.629Z,2.07
2024-02-19T03:51:11.341Z,1.00
2024-02-19T03:55:28.699Z,0.67
2024-02-19T03:59:46.017Z,0.30
2024-02-19T04:04:03.492Z,0.30
2024-02-19T04:08:20.848Z,3.40
2024-02-19T04:12:39.056Z,0.30
2024-02-19T04:16:56.508Z,0.50
2024-02-19T04:21:13.682Z,0.40
2024-02-19T04:25:30.948Z,0.22
2024-02-19T04:29:48.317Z,0.30
2024-02-19T04:34:09.673Z,0.30
2024-02-19T04:38:26.991Z,0.35
2024-02-19T04:42:44.259Z,1.23
2024-02-19T04:47:01.489Z,0.75
2024-02-19T04:51:18.713Z,1.17
2024-02-19T04:55:36.011Z,1.02
2024-02-19T04:59:53.265Z,0.85
2024-02-19T05:04:10.656Z,3.13
2024-02-19T05:08:27.995Z,1.35
2024-02-19T05:12:45.265Z,0.32
2024-02-19T05:17:02.654Z,2.67
2024-02-19T05:21:19.958Z,1.67
2024-02-19T05:25:38.011Z,1.00
2024-02-19T05:29:55.395Z,0.80
2024-02-19T05:34:12.796Z,2.13
2024-02-19T05:38:30.010Z,1.02
2024-02-19T05:42:47.640Z,0.85
2024-02-19T05:47:05.248Z,0.63
2024-02-19T05:51:23.265Z,1.92
2024-02-19T05:55:40.446Z,0.43
2024-02-19T05:59:59.832Z,0.32
2024-02-19T06:04:18.567Z,0.60
2024-02-19T06:08:35.914Z,1.20
2024-02-19T06:12:53.735Z,0.28
2024-02-19T06:17:11.027Z,0.22
2024-02-19T06:21:28.231Z,0.45
2024-02-19T06:25:45.578Z,1.00
2024-02-19T06:30:03.405Z,0.93
2024-02-19T06:34:21.458Z,0.20
2024-02-19T06:38:38.843Z,1.73
2024-02-19T06:42:56.327Z,0.73
2024-02-19T06:47:14.465Z,0.47
2024-02-19T06:51:31.906Z,0.67
2024-02-19T06:55:49.173Z,0.50
2024-02-19T07:00:08.136Z,1.60
2024-02-19T07:04:25.456Z,0.47
2024-02-19T07:08:42.762Z,0.30
2024-02-19T07:13:00.361Z,0.30
2024-02-19T07:17:17.624Z,0.28
2024-02-19T07:21:34.902Z,0.65
2024-02-19T07:25:55.415Z,0.95
2024-02-19T07:30:13.865Z,0.30
2024-02-19T07:34:31.120Z,1.05
2024-02-19T07:38:48.394Z,0.30
2024-02-19T07:43:06.248Z,0.98
2024-02-19T07:47:23.622Z,0.40
2024-02-19T07:51:40.852Z,0.57
2024-02-19T07:56:06.201Z,0.52
2024-02-19T08:00:23.483Z,1.50
2024-02-19T08:04:40.841Z,0.20
2024-02-19T08:08:59.749Z,0.68
2024-02-19T08:13:17.155Z,2.03
2024-02-19T08:17:34.557Z,0.70
2024-02-19T08:21:51.963Z,0.40
2024-02-19T08:26:09.274Z,0.50
2024-02-19T08:30:26.587Z,0.85
2024-02-19T08:34:43.799Z,1.10
2024-02-19T08:39:01.195Z,0.50
2024-02-19T08:43:18.520Z,0.57
2024-02-19T08:47:37.769Z,0.90
2024-02-19T08:51:55.001Z,0.63
2024-02-19T08:56:12.729Z,0.25
2024-02-19T09:00:32.175Z,0.98
2024-02-19T09:04:51.171Z,0.30
2024-02-19T09:09:09.303Z,0.47
2024-02-19T09:13:26.647Z,1.17
2024-02-19T09:17:43.979Z,0.60
2024-02-19T09:22:01.176Z,1.75
2024-02-19T09:26:19.696Z,0.30
2024-02-19T09:34:53.997Z,0.68
2024-02-19T09:39:13.121Z,0.55
2024-02-19T09:43:30.343Z,0.70
2024-02-19T09:47:53.754Z,0.22
2024-02-19T09:52:13.074Z,0.75
2024-02-19T09:56:30.538Z,1.20
2024-02-19T10:00:48.643Z,0.55
2024-02-19T10:05:08.765Z,0.30
2024-02-19T10:09:26.150Z,0.68
2024-02-19T10:13:43.629Z,0.47
2024-02-19T10:18:01.217Z,1.27
2024-02-19T10:22:19.101Z,1.40
2024-02-19T10:26:36.301Z,0.40
2024-02-19T10:30:53.581Z,2.25
2024-02-19T10:35:11.321Z,0.40
2024-02-19T10:39:28.911Z,0.35
2024-02-19T10:43:46.378Z,4.13
2024-02-19T10:48:04.185Z,1.02
2024-02-19T10:52:22.785Z,1.47
2024-02-19T10:56:44.310Z,0.55
2024-02-19T11:01:05.266Z,1.60
2024-02-19T11:05:28.645Z,0.68
2024-02-19T11:09:45.940Z,1.15
2024-02-19T11:14:03.224Z,1.40
2024-02-19T11:18:21.781Z,1.25
2024-02-19T11:26:58.493Z,0.70
2024-02-19T11:31:15.884Z,0.88
2024-02-19T11:35:37.442Z,0.80
2024-02-19T11:39:54.810Z,2.15
2024-02-19T11:44:16.625Z,1.65
2024-02-19T11:48:37.090Z,1.52
2024-02-19T11:52:56.459Z,0.80
2024-02-19T11:57:14.920Z,1.25
2024-02-19T12:01:33.866Z,0.60
2024-02-19T12:05:51.407Z,1.02
2024-02-19T12:10:11.013Z,0.45
2024-02-19T12:14:28.374Z,0.52
2024-02-19T12:18:46.849Z,0.50
2024-02-19T12:27:21.995Z,0.35
2024-02-19T12:31:39.379Z,0.82
2024-02-19T12:35:56.770Z,0.60
2024-02-19T12:40:14.751Z,0.35
2024-02-19T12:44:32.567Z,0.85
2024-02-19T12:48:50.286Z,0.57
2024-02-19T12:53:07.512Z,1.27
2024-02-19T12:57:24.649Z,0.50
2024-02-19T13:01:42.627Z,1.67
2024-02-19T13:06:00.127Z,0.82
2024-02-19T13:10:17.651Z,0.60
2024-02-19T13:14:35.519Z,1.25
2024-02-19T13:18:53.405Z,0.30
2024-02-19T13:23:11.096Z,0.77
2024-02-19T13:27:28.476Z,0.57
2024-02-19T13:31:46.078Z,1.33
2024-02-19T13:36:03.662Z,0.77
2024-02-19T13:40:21.497Z,0.65
2024-02-19T13:44:39.767Z,0.47
2024-02-19T13:49:01.854Z,1.73
2024-02-19T13:53:19.336Z,0.50
2024-02-19T13:57:37.028Z,1.02
2024-02-19T14:01:54.464Z,1.00
2024-02-19T14:06:12.517Z,1.48
2024-02-19T14:10:30.170Z,0.63
2024-02-19T14:14:47.391Z,1.27
2024-02-19T14:19:04.795Z,0.40
2024-02-19T14:23:22.343Z,2.20
2024-02-19T14:27:40.056Z,0.87
2024-02-19T14:31:58.379Z,1.08
2024-02-19T14:36:15.729Z,1.75
2024-02-19T14:40:34.002Z,1.38
2024-02-19T14:44:52.761Z,0.60
2024-02-19T14:53:28.895Z,2.23
2024-02-19T14:57:47.788Z,1.50
2024-02-19T15:02:05.250Z,2.25
2024-02-19T15:06:23.417Z,1.85
2024-02-19T15:10:41.164Z,2.30
2024-02-19T15:14:58.891Z,2.22
2024-02-19T15:19:17.437Z,1.67
2024-02-19T15:23:40.181Z,2.50
2024-02-19T15:27:57.433Z,1.08
2024-02-19T15:32:16.542Z,11.48
2024-02-19T15:36:33.767Z,6.43
2024-02-19T15:40:51.037Z,1.80
2024-02-19T15:45:08.588Z,1.13
2024-02-19T15:49:26.031Z,1.80
2024-02-19T15:53:43.556Z,0.93
2024-02-19T15:58:01.065Z,1.95
2024-02-19T16:02:18.732Z,2.55
2024-02-19T16:06:38.061Z,1.95
2024-02-19T16:11:01.136Z,2.10
2024-02-19T16:15:18.356Z,0.70
2024-02-19T16:19:35.855Z,2.03
2024-02-19T16:23:53.153Z,1.23
2024-02-19T16:28:10.557Z,1.17
2024-02-19T16:32:27.854Z,1.35
2024-02-19T16:36:45.838Z,1.42
2024-02-19T16:41:03.055Z,0.70
2024-02-19T16:45:20.628Z,2.85
2024-02-19T16:49:38.018Z,1.55
2024-02-19T16:53:58.150Z,1.60
2024-02-19T16:58:19.026Z,3.08
2024-02-19T17:02:36.549Z,1.27
2024-02-19T17:06:55.022Z,1.88
2024-02-19T17:15:29.889Z,1.50
2024-02-19T17:19:47.139Z,1.90
2024-02-19T17:24:05.197Z,2.58
2024-02-19T17:28:23.608Z,2.47
2024-02-19T17:36:58.544Z,1.88
2024-02-19T17:41:15.953Z,2.25
2024-02-19T17:45:33.275Z,2.55
2024-02-19T17:49:50.583Z,2.45
2024-02-19T17:54:08.132Z,1.67
2024-02-19T17:58:25.819Z,2.38
2024-02-19T18:02:43.165Z,3.43
2024-02-19T18:07:01.864Z,2.63
2024-02-19T18:11:20.004Z,3.22
2024-02-19T18:15:37.632Z,2.47
2024-02-19T18:19:55.996Z,3.33
2024-02-19T18:28:31.765Z,3.25
2024-02-19T18:32:49.784Z,2.15
2024-02-19T18:37:08.398Z,3.58
2024-02-19T18:41:25.718Z,2.40
2024-02-19T18:45:43.036Z,4.30
2024-02-19T18:50:00.622Z,3.60
2024-02-19T18:54:19.599Z,2.35
2024-02-19T18:58:36.859Z,4.07
2024-02-19T19:02:58.572Z,3.90
2024-02-19T19:07:19.653Z,4.80
2024-02-19T19:11:37.201Z,3.60
2024-02-19T19:15:57.214Z,4.22
2024-02-19T19:20:14.817Z,3.92
2024-02-19T19:24:32.437Z,7.97
2024-02-19T19:28:49.785Z,3.70
2024-02-19T19:33:07.160Z,3.85
2024-02-19T19:37:25.895Z,6.57
2024-02-19T19:41:43.546Z,5.68
2024-02-19T19:46:00.952Z,4.15
2024-02-19T19:50:20.570Z,6.00
2024-02-19T19:54:37.932Z,7.10
2024-02-19T19:58:58.620Z,5.10
2024-02-19T20:03:15.997Z,6.32
2024-02-19T20:07:33.227Z,5.90
2024-02-19T20:11:50.650Z,4.57
2024-02-19T20:16:08.421Z,4.40
2024-02-19T20:20:27.386Z,5.53
2024-02-19T20:24:44.701Z,4.85
2024-02-19T20:29:02.046Z,4.25
2024-02-19T20:33:19.543Z,8.93
2024-02-19T20:37:36.826Z,5.35
2024-02-19T20:41:54.026Z,5.07
2024-02-19T20:46:11.299Z,7.50
2024-02-19T20:50:28.544Z,6.28
2024-02-19T20:54:45.712Z,4.78
2024-02-19T20:59:02.945Z,5.50
2024-02-19T21:03:22.600Z,5.57
2024-02-19T21:07:45.194Z,7.18
2024-02-19T21:12:03.034Z,6.53
2024-02-19T21:16:20.453Z,3.08
2024-02-19T21:20:38.011Z,6.88
2024-02-19T21:25:00.323Z,8.25
2024-02-19T21:29:18.255Z,7.60
2024-02-19T21:33:35.486Z,4.85
2024-02-19T21:37:53.024Z,6.68
2024-02-19T21:42:10.892Z,7.68
2024-02-19T21:46:28.268Z,6.47
2024-02-19T21:50:45.640Z,5.78
2024-02-19T21:55:04.219Z,7.35
2024-02-19T21:59:21.559Z,4.38
2024-02-19T22:03:38.849Z,6.07
2024-02-19T22:08:01.144Z,5.95
2024-02-19T22:12:18.513Z,7.55
2024-02-19T22:16:35.849Z,5.38
2024-02-19T22:20:53.137Z,5.78
2024-02-19T22:25:10.645Z,6.32
2024-02-19T22:29:27.977Z,7.60
2024-02-19T22:33:45.364Z,6.03
2024-02-19T22:38:02.843Z,6.70
2024-02-19T22:42:20.470Z,7.25
2024-02-19T22:46:37.775Z,5.95
2024-02-19T22:50:55.122Z,9.93
2024-02-19T22:55:12.473Z,7.93
2024-02-19T22:59:29.749Z,5.95
2024-02-19T23:03:47.025Z,9.75
2024-02-19T23:08:04.593Z,6.20
2024-02-19T23:12:22.501Z,6.82
2024-02-19T23:16:39.906Z,6.53
2024-02-19T23:20:57.395Z,5.40
2024-02-19T23:25:14.774Z,7.28
2024-02-19T23:29:32.792Z,4.15
2024-02-19T23:33:50.215Z,5.20
2024-02-19T23:38:08.690Z,4.53
2024-02-19T23:42:26.760Z,4.43
2024-02-19T23:46:45.304Z,4.70
2024-02-19T23:51:02.568Z,5.18
2024-02-19T23:55:19.925Z,3.58
2024-02-19T23:59:37.188Z,5.22
